Time;durP1;ratioP1;P1;durP2;ratioP2;P2;SDS_P1;SDS_P2;PMS_P1;PMS_P2;Temp;Humidity;BMP_temperature;BMP_pressure;BME280_temperature;BME280_humidity;BME280_pressure;Samples;Min_cycle;Max_cycle;Signal;HPM_P1;HPM_P2
2022/06/19 00:00:11;;;;;;;5.20;4.40;;;;;;;23.10;54.30;100216.06;679651;29;1490;-79
2022/06/19 00:00:35;;;;;;;7.45;4.35;;;;;;;23.11;54.26;100207.19;684754;28;1308;-79
2022/06/19 00:00:55;;;;;;;6.68;4.40;;;;;;;23.13;54.22;100215.97;682673;29;776;-79
2022/06/19 00:01:16;;;;;;;6.67;4.40;;;;;;;23.11;54.06;100212.50;679536;29;1242;-79
2022/06/19 00:01:37;;;;;;;5.13;4.40;;;;;;;23.04;54.21;100214.47;679526;29;1087;-79
2022/06/19 00:01:58;;;;;;;5.50;4.47;;;;;;;23.06;54.31;100219.75;682588;28;1376;-79
2022/06/19 00:02:20;;;;;;;6.25;4.50;;;;;;;23.08;54.35;100212.56;681712;29;1485;-79
2022/06/19 00:02:43;;;;;;;6.75;4.53;;;;;;;22.97;54.52;100215.56;685093;28;958;-80
2022/06/19 00:03:09;;;;;;;6.57;4.50;;;;;;;22.96;54.40;100213.81;688014;28;1501;-80
2022/06/19 00:03:37;;;;;;;5.35;4.43;;;;;;;23.00;54.48;100218.16;686617;28;1448;-78
2022/06/19 00:03:58;;;;;;;5.63;4.60;;;;;;;23.12;54.27;100211.56;690538;28;1323;-79
2022/06/19 00:04:20;;;;;;;5.28;4.43;;;;;;;23.14;54.20;100223.03;684888;28;1319;-78
2022/06/19 00:04:43;;;;;;;5.03;4.53;;;;;;;23.25;53.84;100218.19;681350;29;1010;-79
2022/06/19 00:05:04;;;;;;;5.10;4.60;;;;;;;23.23;53.89;100203.22;679725;29;1711;-79
2022/06/19 00:05:25;;;;;;;5.32;4.55;;;;;;;23.25;53.78;100209.38;679782;29;1418;-79
2022/06/19 00:05:45;;;;;;;5.38;4.47;;;;;;;23.22;53.76;100215.66;677214;29;986;-79
2022/06/19 00:06:07;;;;;;;5.30;4.70;;;;;;;23.16;54.00;100210.53;679717;29;1581;-79
2022/06/19 00:06:28;;;;;;;5.30;4.80;;;;;;;23.09;54.00;100198.34;679418;29;1172;-79
2022/06/19 00:06:49;;;;;;;5.30;4.80;;;;;;;23.10;54.09;100211.63;679867;29;1062;-79
2022/06/19 00:07:11;;;;;;;5.70;4.50;;;;;;;23.09;54.05;100204.56;682189;28;1899;-80
2022/06/19 00:07:32;;;;;;;6.22;4.78;;;;;;;23.11;54.13;100212.50;682534;28;1701;-79
2022/06/19 00:07:53;;;;;;;6.90;4.90;;;;;;;23.04;54.09;100206.50;679258;29;1208;-79
2022/06/19 00:08:14;;;;;;;5.55;4.80;;;;;;;23.02;54.25;100208.34;679124;29;1551;-79
2022/06/19 00:08:34;;;;;;;4.93;4.43;;;;;;;23.02;54.02;100208.34;679363;29;1462;-78
2022/06/19 00:08:55;;;;;;;5.63;4.37;;;;;;;22.95;54.22;100204.09;679928;29;701;-79
2022/06/19 00:09:16;;;;;;;5.90;4.38;;;;;;;22.96;54.14;100204.06;683396;28;1552;-79
2022/06/19 00:09:37;;;;;;;5.95;4.40;;;;;;;22.94;54.36;100200.56;681311;29;1149;-80
2022/06/19 00:09:58;;;;;;;4.70;4.20;;;;;;;22.97;54.61;100216.44;679902;29;899;-79
2022/06/19 00:10:19;;;;;;;4.85;4.20;;;;;;;22.94;54.43;100205.03;677439;29;1575;-79
2022/06/19 00:10:39;;;;;;;5.93;4.50;;;;;;;22.91;54.53;100206.00;679821;29;1174;-80
2022/06/19 00:11:02;;;;;;;6.00;4.40;;;;;;;22.98;54.55;100214.63;679910;29;1174;-79
2022/06/19 00:11:23;;;;;;;6.70;4.80;;;;;;;22.90;54.75;100204.25;679717;29;1137;-78
2022/06/19 00:11:45;;;;;;;6.13;4.50;;;;;;;22.88;54.46;100208.78;684231;28;1290;-79
2022/06/19 00:12:07;;;;;;;5.88;4.60;;;;;;;22.91;54.44;100210.47;680352;29;1569;-79
2022/06/19 00:12:28;;;;;;;4.93;4.40;;;;;;;22.94;54.47;100216.53;682234;29;828;-79
2022/06/19 00:12:48;;;;;;;5.00;4.43;;;;;;;22.89;54.53;100207.84;680820;29;1095;-78
2022/06/19 00:13:09;;;;;;;4.63;4.23;;;;;;;22.85;54.89;100200.88;679597;29;1499;-80
2022/06/19 00:13:30;;;;;;;4.50;4.10;;;;;;;22.86;54.54;100200.84;676366;29;1070;-79
2022/06/19 00:13:51;;;;;;;4.60;4.20;;;;;;;22.86;54.65;100203.50;679777;29;1158;-79
2022/06/19 00:14:12;;;;;;;5.03;4.47;;;;;;;22.86;54.52;100202.59;681199;29;1461;-79
2022/06/19 00:14:34;;;;;;;6.35;4.80;;;;;;;22.87;54.50;100207.03;679955;29;1315;-79
2022/06/19 00:14:54;;;;;;;6.22;4.60;;;;;;;22.86;54.64;100208.81;679430;29;1500;-78
2022/06/19 00:15:16;;;;;;;5.43;4.43;;;;;;;22.84;54.64;100204.47;682505;29;986;-79
2022/06/19 00:15:37;;;;;;;4.57;4.10;;;;;;;22.88;54.80;100206.09;682455;29;1124;-79
2022/06/19 00:15:58;;;;;;;5.00;4.20;;;;;;;22.89;54.90;100213.16;684549;28;819;-78
2022/06/19 00:16:19;;;;;;;4.82;4.20;;;;;;;22.83;54.96;100202.72;681577;29;1203;-79
2022/06/19 00:16:40;;;;;;;4.63;4.23;;;;;;;22.81;54.81;100199.25;681947;29;1418;-79
2022/06/19 00:17:02;;;;;;;4.63;4.22;;;;;;;22.85;54.46;100211.50;682195;29;965;-79
2022/06/19 00:17:22;;;;;;;4.90;4.40;;;;;;;22.79;54.86;100201.09;681026;28;1094;-79
2022/06/19 00:17:43;;;;;;;4.57;4.13;;;;;;;22.78;54.82;100205.53;679930;29;1179;-79
2022/06/19 00:18:04;;;;;;;6.15;4.40;;;;;;;22.77;54.67;100195.81;681947;29;1379;-79
2022/06/19 00:18:25;;;;;;;6.60;4.20;;;;;;;22.78;55.04;100201.97;686251;28;1053;-79
2022/06/19 00:18:45;;;;;;;6.95;4.35;;;;;;;22.73;54.96;100196.81;682474;29;967;-79
2022/06/19 00:19:07;;;;;;;5.70;4.40;;;;;;;22.64;55.02;100198.00;682191;28;1341;-79
2022/06/19 00:19:27;;;;;;;5.87;4.60;;;;;;;22.76;55.01;100202.06;683903;28;1101;-79
2022/06/19 00:19:48;;;;;;;5.80;4.50;;;;;;;22.73;54.94;100197.69;682203;29;912;-79
2022/06/19 00:20:11;;;;;;;5.00;4.22;;;;;;;22.73;54.77;100197.69;682881;28;1636;-79
2022/06/19 00:20:31;;;;;;;4.75;4.22;;;;;;;22.73;54.88;100191.50;681791;29;1074;-79
2022/06/19 00:20:52;;;;;;;4.85;4.35;;;;;;;22.74;54.88;100198.56;682216;29;1171;-79
2022/06/19 00:21:15;;;;;;;5.00;4.50;;;;;;;22.77;54.92;100197.59;679859;29;951;-79
2022/06/19 00:21:36;;;;;;;5.10;4.60;;;;;;;22.71;54.81;100194.22;679286;29;1158;-79
2022/06/19 00:21:57;;;;;;;4.88;4.32;;;;;;;22.70;54.50;100192.47;679992;29;1085;-78
2022/06/19 00:22:18;;;;;;;4.80;4.30;;;;;;;22.70;54.73;100197.78;681708;28;1283;-79
2022/06/19 00:22:39;;;;;;;4.63;4.10;;;;;;;22.69;55.01;100193.38;679965;29;1191;-79
2022/06/19 00:22:59;;;;;;;4.78;4.28;;;;;;;22.67;55.03;100195.22;680032;29;777;-79
2022/06/19 00:23:25;;;;;;;4.73;4.30;;;;;;;22.68;54.94;100194.31;680144;29;1210;-78
2022/06/19 00:23:46;;;;;;;4.80;4.30;;;;;;;22.67;55.00;100200.56;677203;29;1214;-80
2022/06/19 00:24:07;;;;;;;5.38;4.15;;;;;;;22.67;54.93;100195.22;679691;29;1006;-79
2022/06/19 00:24:29;;;;;;;5.35;4.45;;;;;;;22.68;54.99;100202.28;682470;28;1516;-79
2022/06/19 00:24:49;;;;;;;5.40;4.40;;;;;;;22.66;55.07;100201.47;685040;28;1380;-79
2022/06/19 00:25:10;;;;;;;5.00;4.40;;;;;;;22.64;54.90;100192.69;683599;28;1680;-79
2022/06/19 00:25:31;;;;;;;5.60;4.30;;;;;;;22.68;54.99;100198.78;681858;29;1424;-79
2022/06/19 00:25:52;;;;;;;6.03;4.40;;;;;;;22.71;55.13;100214.63;680435;29;952;-79
2022/06/19 00:26:14;;;;;;;5.85;4.32;;;;;;;22.65;54.88;100199.75;682021;29;1100;-79
2022/06/19 00:26:35;;;;;;;5.97;4.10;;;;;;;22.65;54.97;100205.06;684903;28;1197;-79
2022/06/19 00:26:56;;;;;;;5.30;4.10;;;;;;;22.62;55.04;100198.97;685061;28;1266;-78
2022/06/19 00:27:17;;;;;;;5.13;4.28;;;;;;;22.63;54.89;100206.00;685691;28;1957;-79
2022/06/19 00:27:39;;;;;;;4.78;4.28;;;;;;;22.59;55.07;100194.59;682545;29;1441;-79
2022/06/19 00:28:01;;;;;;;4.75;4.20;;;;;;;22.64;55.07;100211.28;682557;29;1023;-79
2022/06/19 00:28:23;;;;;;;4.90;4.40;;;;;;;22.63;55.14;100201.59;682082;29;1303;-80
2022/06/19 00:28:46;;;;;;;5.10;4.45;;;;;;;22.57;55.26;100201.78;682372;29;1189;-79
2022/06/19 00:29:06;;;;;;;5.00;4.50;;;;;;;22.58;55.08;100201.69;682475;28;1073;-80
2022/06/19 00:29:28;;;;;;;5.40;4.60;;;;;;;22.57;55.15;100196.44;685971;28;1244;-79
2022/06/19 00:29:48;;;;;;;6.73;5.00;;;;;;;22.57;55.02;100194.66;684942;28;1001;-79
2022/06/19 00:30:11;;;;;;;7.03;4.80;;;;;;;22.60;55.05;100199.88;689205;28;870;-78
2022/06/19 00:30:32;;;;;;;8.60;4.60;;;;;;;22.56;55.02;100197.38;684533;28;1349;-78
2022/06/19 00:30:53;;;;;;;7.70;4.53;;;;;;;22.62;55.05;100207.78;682211;29;1712;-79
2022/06/19 00:31:14;;;;;;;7.80;4.60;;;;;;;22.55;54.95;100192.94;678298;29;1486;-79
2022/06/19 00:31:35;;;;;;;5.15;4.50;;;;;;;22.51;55.39;100192.22;685151;28;1128;-79
2022/06/19 00:31:56;;;;;;;5.13;4.35;;;;;;;22.55;55.22;100192.94;683081;28;1225;-79
2022/06/19 00:32:18;;;;;;;5.85;4.30;;;;;;;22.54;55.02;100191.22;678286;29;1113;-79
2022/06/19 00:32:39;;;;;;;9.15;4.47;;;;;;;22.57;55.12;100199.09;682524;29;979;-79
2022/06/19 00:32:59;;;;;;;8.77;4.57;;;;;;;22.56;55.27;100200.03;687938;28;859;-78
2022/06/19 00:33:20;;;;;;;8.30;4.60;;;;;;;22.52;55.28;100204.56;682772;28;1119;-78
2022/06/19 00:33:41;;;;;;;6.07;4.30;;;;;;;22.52;55.17;100193.06;679752;29;1060;-79
2022/06/19 00:34:03;;;;;;;5.30;4.10;;;;;;;22.54;55.19;100194.75;679881;29;1106;-79
2022/06/19 00:34:24;;;;;;;5.10;4.00;;;;;;;22.56;55.25;100202.69;678150;29;1235;-79
2022/06/19 00:34:45;;;;;;;4.40;4.00;;;;;;;22.50;55.22;100190.44;682383;29;1796;-78
2022/06/19 00:35:06;;;;;;;4.50;4.10;;;;;;;22.54;55.16;100199.19;681829;29;1517;-79
2022/06/19 00:35:27;;;;;;;4.70;4.20;;;;;;;22.56;55.20;100205.34;687838;28;1005;-79
2022/06/19 00:35:48;;;;;;;4.35;3.95;;;;;;;22.53;55.20;100198.34;682434;28;1114;-78
2022/06/19 00:36:09;;;;;;;4.40;4.00;;;;;;;22.50;55.26;100189.59;682132;29;1578;-78
2022/06/19 00:36:30;;;;;;;4.40;4.00;;;;;;;22.52;55.27;100190.41;684379;28;1105;-79
2022/06/19 00:36:52;;;;;;;4.85;4.10;;;;;;;22.48;55.22;100188.78;679971;29;980;-79
2022/06/19 00:37:13;;;;;;;6.03;4.40;;;;;;;22.46;55.03;100187.00;680909;29;1546;-79
2022/06/19 00:37:34;;;;;;;7.00;4.60;;;;;;;22.44;55.04;100186.19;687797;28;1139;-78
2022/06/19 00:37:56;;;;;;;6.38;4.50;;;;;;;22.46;55.07;100186.16;687899;28;1917;-78
2022/06/19 00:38:16;;;;;;;4.45;4.05;;;;;;;22.48;55.38;100194.09;681900;29;1491;-79
2022/06/19 00:38:37;;;;;;;4.33;3.93;;;;;;;22.43;55.09;100183.56;677209;29;1182;-79
2022/06/19 00:38:58;;;;;;;4.00;3.70;;;;;;;22.42;55.36;100181.84;682596;29;773;-78
2022/06/19 00:39:20;;;;;;;4.20;3.80;;;;;;;22.46;55.24;100184.34;682227;29;1147;-79
2022/06/19 00:39:40;;;;;;;4.78;3.78;;;;;;;22.40;55.37;100179.25;687072;28;1486;-79
2022/06/19 00:40:05;;;;;;;5.18;4.10;;;;;;;22.44;55.16;100186.19;682456;29;925;-79
2022/06/19 00:40:29;;;;;;;6.07;4.20;;;;;;;22.43;55.14;100178.25;685716;28;1382;-79
2022/06/19 00:40:49;;;;;;;5.97;4.30;;;;;;;22.42;55.30;100179.16;685176;28;935;-79
2022/06/19 00:41:10;;;;;;;5.23;4.30;;;;;;;22.39;55.26;100180.16;681793;29;2206;-79
2022/06/19 00:41:34;;;;;;;4.70;4.20;;;;;;;22.38;55.21;100183.72;684668;28;1285;-79
2022/06/19 00:41:55;;;;;;;5.20;4.50;;;;;;;22.43;55.32;100192.44;685163;28;1353;-78
2022/06/19 00:42:16;;;;;;;5.55;4.53;;;;;;;22.37;55.18;100179.31;684846;28;1270;-78
2022/06/19 00:42:36;;;;;;;6.53;4.63;;;;;;;22.39;55.07;100176.63;682672;28;1211;-79
2022/06/19 00:42:57;;;;;;;6.60;4.40;;;;;;;22.36;55.11;100174.06;679800;29;1043;-79
2022/06/19 00:43:19;;;;;;;5.65;4.00;;;;;;;22.39;55.07;100172.19;685215;28;1346;-79
2022/06/19 00:43:56;;;;;;;4.55;3.90;;;;;;;22.36;55.17;100172.25;682440;29;1123;-79
2022/06/19 00:44:17;;;;;;;4.43;4.03;;;;;;;22.38;55.40;100175.75;681319;29;1316;-79
2022/06/19 00:44:37;;;;;;;4.40;4.00;;;;;;;22.36;55.07;100177.59;682561;28;1438;-79
2022/06/19 00:44:58;;;;;;;4.57;4.18;;;;;;;22.33;55.22;100167.06;689160;28;1151;-79
2022/06/19 00:45:30;;;;;;;4.45;4.05;;;;;;;22.37;55.08;100174.00;683539;28;2270;-79
2022/06/19 00:45:52;;;;;;;4.20;3.80;;;;;;;22.32;55.28;100170.63;685080;28;1184;-79
2022/06/19 00:46:41;;;;;;;3.95;3.55;;;;;;;22.34;55.25;100174.13;681734;29;1491;-79
2022/06/19 00:47:24;;;;;;;4.70;3.60;;;;;;;22.31;55.11;100163.56;679723;29;2001;-79
2022/06/19 00:47:45;;;;;;;4.72;3.63;;;;;;;22.27;55.22;100167.25;677156;29;1314;-79
2022/06/19 00:48:12;;;;;;;6.60;3.93;;;;;;;22.27;55.33;100162.81;679103;29;1567;-78
2022/06/19 00:48:37;;;;;;;6.18;4.05;;;;;;;22.24;55.29;100162.00;679752;29;1106;-78
2022/06/19 00:48:57;;;;;;;5.90;4.20;;;;;;;22.23;55.37;100166.44;677204;29;1205;-78
2022/06/19 00:49:56;;;;;;;5.97;4.40;;;;;;;22.24;55.35;100165.50;676990;29;1037;-78
2022/06/19 00:50:28;;;;;;;5.75;4.15;;;;;;;22.22;55.17;100167.34;671236;29;1648;-78
2022/06/19 00:50:51;;;;;;;6.30;4.20;;;;;;;22.21;55.37;100164.72;681460;29;1156;-78
2022/06/19 00:51:11;;;;;;;7.38;4.50;;;;;;;22.15;55.20;100158.72;682343;28;1372;-78
2022/06/19 00:51:32;;;;;;;9.55;4.78;;;;;;;22.17;55.30;100156.88;682470;29;1107;-79
2022/06/19 00:52:04;;;;;;;7.53;4.47;;;;;;;22.23;55.32;100162.88;682257;29;1182;-79
2022/06/19 00:52:37;;;;;;;7.35;4.25;;;;;;;22.19;55.19;100154.13;683449;28;1612;-79
2022/06/19 00:52:59;;;;;;;5.90;4.00;;;;;;;22.22;55.19;100161.16;679996;29;788;-79
2022/06/19 00:53:35;;;;;;;4.88;3.80;;;;;;;22.13;55.38;100157.00;682418;28;1554;-79
2022/06/19 00:53:56;;;;;;;4.60;3.67;;;;;;;22.19;55.10;100160.34;682577;29;857;-78
2022/06/19 00:54:21;;;;;;;4.45;3.83;;;;;;;22.11;55.29;100156.16;684147;28;2227;-78
2022/06/19 00:54:46;;;;;;;4.53;4.00;;;;;;;22.13;55.09;100149.88;685169;28;1208;-78
2022/06/19 00:55:26;;;;;;;4.70;4.00;;;;;;;22.13;55.23;100160.50;679823;29;1517;-79
2022/06/19 00:55:50;;;;;;;6.50;4.40;;;;;;;22.05;55.34;100151.91;682040;29;1341;-79
2022/06/19 00:56:16;;;;;;;5.70;4.35;;;;;;;22.08;55.29;100154.50;682286;29;1327;-79
2022/06/19 00:56:37;;;;;;;4.32;3.90;;;;;;;22.04;55.26;100144.84;681865;29;1962;-80
2022/06/19 00:56:58;;;;;;;4.20;3.80;;;;;;;22.02;55.37;100144.91;682580;29;919;-79
2022/06/19 00:57:20;;;;;;;4.13;3.72;;;;;;;22.02;55.40;100147.53;682292;28;1395;-79
2022/06/19 00:57:53;;;;;;;4.10;3.70;;;;;;;22.00;55.56;100148.53;682577;29;1462;-79
2022/06/19 00:58:18;;;;;;;4.40;4.00;;;;;;;22.04;55.45;100153.72;677318;29;1597;-79
2022/06/19 00:58:40;;;;;;;4.40;4.00;;;;;;;22.00;55.35;100144.06;676421;29;1722;-79
2022/06/19 00:59:03;;;;;;;4.40;4.00;;;;;;;21.97;55.50;100138.88;677149;29;1203;-78
2022/06/19 00:59:24;;;;;;;6.28;4.13;;;;;;;21.97;55.58;100143.31;677811;29;1717;-79
2022/06/19 00:59:51;;;;;;;6.63;4.20;;;;;;;21.97;55.63;100132.66;676273;29;978;-78
2022/06/19 01:00:16;;;;;;;7.05;3.85;;;;;;;21.97;55.74;100137.97;676920;29;1313;-79
2022/06/19 01:00:39;;;;;;;5.15;3.70;;;;;;;22.00;55.39;100146.72;677251;29;1028;-79
2022/06/19 01:01:07;;;;;;;5.95;3.95;;;;;;;21.95;55.72;100139.81;682409;29;1367;-79
2022/06/19 01:01:28;;;;;;;5.43;4.10;;;;;;;21.94;55.65;100138.94;685094;28;902;-79
2022/06/19 01:01:49;;;;;;;5.15;3.65;;;;;;;21.93;55.71;100136.34;687698;28;1022;-78
2022/06/19 01:02:12;;;;;;;4.03;3.40;;;;;;;21.91;55.68;100131.97;680482;29;1346;-78
2022/06/19 01:02:33;;;;;;;4.40;3.63;;;;;;;21.91;55.72;100134.63;681390;28;1458;-78
2022/06/19 01:03:01;;;;;;;4.70;3.90;;;;;;;21.92;55.88;100127.50;682088;28;1324;-79
2022/06/19 01:03:29;;;;;;;4.88;4.10;;;;;;;21.94;55.67;100138.94;679521;29;1317;-78
2022/06/19 01:03:57;;;;;;;4.28;3.88;;;;;;;21.95;55.51;100140.69;676855;29;2141;-78
2022/06/19 01:04:28;;;;;;;5.85;3.90;;;;;;;21.95;55.72;100145.13;677268;29;1339;-79
2022/06/19 01:04:52;;;;;;;5.65;3.75;;;;;;;21.92;55.59;100138.13;681523;29;1337;-79
2022/06/19 01:05:14;;;;;;;5.85;3.55;;;;;;;21.91;55.50;100139.94;680692;29;1014;-79
2022/06/19 01:05:37;;;;;;;5.60;3.60;;;;;;;21.95;55.63;100146.00;684607;28;1153;-79
2022/06/19 01:05:58;;;;;;;4.82;3.90;;;;;;;21.88;55.60;100137.34;676980;29;1373;-78
2022/06/19 01:06:20;;;;;;;4.55;3.97;;;;;;;21.88;55.41;100140.00;679173;29;1204;-79
2022/06/19 01:06:41;;;;;;;4.50;3.78;;;;;;;21.84;55.47;100133.06;685092;28;1262;-79
2022/06/19 01:07:03;;;;;;;4.75;3.90;;;;;;;21.86;55.37;100135.66;687899;28;1979;-79
2022/06/19 01:07:26;;;;;;;6.05;4.20;;;;;;;21.85;55.63;100129.47;684848;28;1793;-79
2022/06/19 01:07:47;;;;;;;5.95;4.10;;;;;;;21.85;55.58;100137.44;677700;29;1236;-79
2022/06/19 01:08:10;;;;;;;5.30;3.80;;;;;;;21.88;55.61;100147.13;681900;29;1240;-78
2022/06/19 01:08:31;;;;;;;4.70;3.90;;;;;;;21.81;55.68;100138.44;682449;28;1066;-79
2022/06/19 01:08:52;;;;;;;4.80;4.00;;;;;;;21.84;55.55;100141.03;684205;28;1870;-78
2022/06/19 01:09:13;;;;;;;5.32;3.90;;;;;;;21.80;55.42;100131.38;685692;28;1108;-79
2022/06/19 01:09:33;;;;;;;5.45;3.70;;;;;;;21.82;55.47;100124.25;685311;28;1157;-79
2022/06/19 01:09:54;;;;;;;5.37;3.60;;;;;;;21.84;55.34;100132.16;680655;29;820;-79
2022/06/19 01:10:16;;;;;;;4.72;3.60;;;;;;;21.95;55.28;100142.47;679079;29;2133;-78
2022/06/19 01:10:42;;;;;;;4.90;3.70;;;;;;;21.88;55.29;100137.34;680655;29;1237;-78
2022/06/19 01:11:04;;;;;;;5.15;3.90;;;;;;;21.81;55.55;100133.13;681129;29;1203;-79
2022/06/19 01:11:30;;;;;;;4.63;3.90;;;;;;;21.81;55.51;100127.81;679604;29;1713;-78
2022/06/19 01:11:51;;;;;;;4.50;4.10;;;;;;;21.78;55.56;100127.91;686131;28;1069;-78
2022/06/19 01:12:12;;;;;;;4.13;3.72;;;;;;;21.77;55.39;100127.03;685252;28;1593;-79
2022/06/19 01:12:33;;;;;;;4.30;3.90;;;;;;;21.75;55.46;100122.69;680394;29;1114;-78
2022/06/19 01:12:55;;;;;;;4.37;3.90;;;;;;;21.76;55.38;100130.59;680453;29;1201;-78
2022/06/19 01:13:20;;;;;;;4.80;4.05;;;;;;;21.80;55.54;100131.38;676532;29;1605;-78
2022/06/19 01:13:41;;;;;;;4.20;3.80;;;;;;;21.76;55.62;100121.78;677952;29;2132;-78
2022/06/19 01:14:02;;;;;;;4.47;3.60;;;;;;;21.79;55.60;100132.31;678180;29;857;-78
2022/06/19 01:14:26;;;;;;;4.45;3.50;;;;;;;21.76;55.49;100117.31;679991;29;1372;-78
2022/06/19 01:14:47;;;;;;;4.82;3.65;;;;;;;21.78;55.39;100117.28;678129;29;1127;-79
2022/06/19 01:15:13;;;;;;;7.13;3.80;;;;;;;21.77;55.50;100118.22;678071;29;1317;-79
2022/06/19 01:15:34;;;;;;;6.88;3.83;;;;;;;21.81;55.40;100125.16;685662;28;1148;-78
2022/06/19 01:15:55;;;;;;;4.97;3.60;;;;;;;21.81;55.46;100122.50;686131;28;828;-79
2022/06/19 01:16:16;;;;;;;4.25;3.85;;;;;;;21.81;55.31;100119.00;685713;28;1569;-79
2022/06/19 01:16:37;;;;;;;4.78;4.00;;;;;;;21.78;55.32;100111.97;677985;29;1159;-79
2022/06/19 01:17:01;;;;;;;5.60;4.00;;;;;;;21.76;55.51;100112.03;680232;29;1394;-79
2022/06/19 01:17:21;;;;;;;6.40;3.95;;;;;;;21.73;55.40;100112.13;680394;29;1492;-78
2022/06/19 01:17:46;;;;;;;5.13;4.00;;;;;;;21.78;55.47;100117.28;680553;29;1234;-79
2022/06/19 01:18:09;;;;;;;6.45;4.00;;;;;;;21.72;55.50;100102.41;677934;29;1181;-79
2022/06/19 01:18:33;;;;;;;5.20;3.70;;;;;;;21.73;55.33;100103.28;687640;28;1081;-79
2022/06/19 01:18:53;;;;;;;5.20;3.75;;;;;;;21.74;55.20;100105.00;688678;28;1089;-79
2022/06/19 01:19:23;;;;;;;5.47;3.70;;;;;;;21.73;55.43;100100.63;687881;28;1735;-79
2022/06/19 01:19:44;;;;;;;5.10;3.60;;;;;;;21.72;55.33;100106.84;682768;29;1042;-78
2022/06/19 01:20:09;;;;;;;4.25;3.35;;;;;;;21.66;55.54;100096.41;683431;28;1049;-78
2022/06/19 01:20:33;;;;;;;3.90;3.50;;;;;;;21.67;55.48;100099.03;682871;28;1579;-79
2022/06/19 01:21:00;;;;;;;4.20;3.80;;;;;;;21.67;55.64;100098.13;680261;29;873;-79
2022/06/19 01:21:30;;;;;;;4.18;3.70;;;;;;;21.68;55.68;100105.22;680971;29;1052;-78
2022/06/19 01:21:56;;;;;;;3.90;3.60;;;;;;;21.66;55.66;100101.72;678195;29;963;-79
2022/06/19 01:22:51;;;;;;;4.03;3.72;;;;;;;21.58;55.68;100094.84;684219;28;1404;-78
2022/06/19 01:23:27;;;;;;;4.47;3.40;;;;;;;21.53;55.85;100088.81;682881;29;2217;-78
2022/06/19 01:23:58;;;;;;;4.80;3.70;;;;;;;21.53;55.85;100096.78;683275;29;1024;-79
2022/06/19 01:24:45;;;;;;;4.32;3.92;;;;;;;21.52;55.84;100100.34;680825;29;1022;-78
2022/06/19 01:25:17;;;;;;;4.35;3.95;;;;;;;21.55;55.75;100108.22;685834;28;1211;-79
2022/06/19 01:25:40;;;;;;;5.15;4.10;;;;;;;21.53;55.68;100104.72;682922;29;1403;-79
2022/06/19 01:26:01;;;;;;;4.90;4.05;;;;;;;21.54;55.70;100102.94;682665;29;1703;-79
2022/06/19 01:26:22;;;;;;;5.53;4.20;;;;;;;21.51;55.89;100111.84;683299;28;1049;-78
2022/06/19 01:26:46;;;;;;;5.38;3.88;;;;;;;21.51;55.90;100109.19;682311;29;1240;-79
2022/06/19 01:28:45;;;;;;;5.20;3.78;;;;;;;21.46;55.78;100106.63;683241;29;1961;-79
2022/06/19 01:28:56;;;;;;;3.80;3.45;;;;;;;21.47;55.79;100103.06;686349;28;1673;-79
2022/06/19 01:29:19;;;;;;;5.25;3.78;;;;;;;21.49;55.83;100103.94;687536;28;1686;-79
2022/06/19 01:29:39;;;;;;;6.28;3.83;;;;;;;21.48;55.51;100094.22;687584;28;1014;-79
2022/06/19 01:30:02;;;;;;;5.63;3.90;;;;;;;21.49;55.69;100097.75;685766;28;1269;-79
2022/06/19 01:30:26;;;;;;;4.78;3.50;;;;;;;21.56;55.51;100112.59;681235;29;1202;-79
2022/06/19 01:30:50;;;;;;;5.30;3.80;;;;;;;21.46;55.67;100100.47;680564;29;1007;-78
2022/06/19 01:31:18;;;;;;;4.70;3.72;;;;;;;21.42;55.71;100093.50;682973;29;1814;-78
2022/06/19 01:31:47;;;;;;;5.68;3.63;;;;;;;21.48;55.48;100096.88;685873;28;1294;-78
2022/06/19 01:32:08;;;;;;;4.97;3.90;;;;;;;21.39;55.49;100089.16;681494;29;1327;-79
2022/06/19 01:32:31;;;;;;;4.80;4.22;;;;;;;21.34;55.72;100091.94;682335;29;973;-78
2022/06/19 01:32:54;;;;;;;4.45;4.05;;;;;;;21.34;55.72;100094.59;680666;29;1063;-79
2022/06/19 01:33:20;;;;;;;4.50;4.10;;;;;;;21.36;55.74;100094.56;680411;29;1750;-78
2022/06/19 01:33:46;;;;;;;4.22;3.83;;;;;;;21.35;55.94;100098.13;680912;29;1321;-79
2022/06/19 01:34:29;;;;;;;4.50;3.90;;;;;;;21.28;55.95;100085.94;680518;29;1046;-78
2022/06/19 01:34:51;;;;;;;5.78;3.80;;;;;;;21.32;55.94;100093.75;678117;29;2094;-79
2022/06/19 01:35:15;;;;;;;5.72;3.70;;;;;;;21.26;56.05;100083.31;683801;28;1498;-78
2022/06/19 01:35:38;;;;;;;6.47;3.83;;;;;;;21.32;56.03;100099.06;685825;28;1048;-79
2022/06/19 01:36:02;;;;;;;5.90;4.10;;;;;;;21.30;55.95;100092.06;678479;29;1664;-79
2022/06/19 01:36:25;;;;;;;4.97;3.90;;;;;;;21.26;55.94;100093.06;683958;28;1812;-79
2022/06/19 01:36:46;;;;;;;4.55;3.80;;;;;;;21.24;56.02;100085.16;682771;28;1884;-78
2022/06/19 01:37:20;;;;;;;4.55;3.83;;;;;;;21.23;56.14;100088.72;683375;29;1618;-79
2022/06/19 01:37:42;;;;;;;4.43;3.75;;;;;;;21.27;56.09;100090.34;683320;29;1133;-79
2022/06/19 01:38:13;;;;;;;4.10;3.70;;;;;;;21.26;56.07;100088.63;682843;29;1929;-79
2022/06/19 01:38:35;;;;;;;3.90;3.50;;;;;;;21.23;56.05;100084.25;683059;29;1097;-79
2022/06/19 01:38:58;;;;;;;4.57;3.97;;;;;;;21.26;55.83;100093.06;680715;29;860;-79
2022/06/19 01:39:19;;;;;;;6.47;4.38;;;;;;;21.24;55.96;100090.44;680978;29;1168;-78
2022/06/19 01:39:46;;;;;;;7.38;4.40;;;;;;;21.18;56.09;100080.00;682577;29;1574;-79
2022/06/19 01:40:15;;;;;;;5.78;3.80;;;;;;;21.22;56.13;100086.97;685907;28;1190;-78
2022/06/19 01:40:37;;;;;;;3.90;3.50;;;;;;;21.16;56.33;100079.19;680480;29;1024;-79
2022/06/19 01:41:04;;;;;;;3.88;3.47;;;;;;;21.14;56.21;100073.91;677671;29;1355;-79
2022/06/19 01:41:28;;;;;;;4.60;3.80;;;;;;;21.20;56.09;100086.13;679764;29;1235;-79
2022/06/19 01:41:49;;;;;;;4.82;3.70;;;;;;;21.28;55.98;100083.28;680127;29;1559;-79
2022/06/19 01:42:11;;;;;;;4.93;4.00;;;;;;;21.29;55.84;100077.94;680112;29;1160;-78
2022/06/19 01:42:32;;;;;;;4.47;3.70;;;;;;;21.36;55.77;100089.25;682713;29;1208;-78
2022/06/19 01:42:54;;;;;;;4.53;3.90;;;;;;;21.37;55.61;100086.56;682728;29;1030;-78
2022/06/19 01:43:15;;;;;;;4.00;3.60;;;;;;;21.25;55.72;100081.56;683195;29;1430;-78
2022/06/19 01:43:36;;;;;;;4.20;3.80;;;;;;;21.22;55.76;100081.69;680466;29;1165;-79
2022/06/19 01:43:56;;;;;;;4.18;3.78;;;;;;;21.21;55.99;100091.41;680569;29;857;-78
2022/06/19 01:44:17;;;;;;;4.10;3.70;;;;;;;21.20;55.96;100086.13;684840;28;1191;-78
2022/06/19 01:44:41;;;;;;;4.07;3.67;;;;;;;21.15;55.91;100080.09;691224;28;1065;-78
2022/06/19 01:45:02;;;;;;;4.40;3.50;;;;;;;21.16;56.19;100081.84;683485;28;1217;-79
2022/06/19 01:45:23;;;;;;;4.30;3.47;;;;;;;21.19;56.23;100087.94;683453;28;1303;-79
2022/06/19 01:45:48;;;;;;;4.70;3.42;;;;;;;21.13;56.00;100079.28;683264;29;1491;-79
2022/06/19 01:46:10;;;;;;;4.25;3.67;;;;;;;21.13;56.11;100082.78;685782;28;1351;-79
2022/06/19 01:46:31;;;;;;;4.53;3.83;;;;;;;21.10;56.03;100078.44;683061;29;1565;-79
2022/06/19 01:46:52;;;;;;;4.33;3.83;;;;;;;21.12;56.04;100082.81;677197;29;1184;-78
2022/06/19 01:47:14;;;;;;;4.25;3.80;;;;;;;21.08;56.22;100082.03;680116;29;1972;-78
2022/06/19 01:47:36;;;;;;;6.22;3.55;;;;;;;21.07;56.08;100075.88;684938;28;1121;-78
2022/06/19 01:47:57;;;;;;;6.63;3.78;;;;;;;21.07;56.13;100081.19;682938;29;1234;-78
2022/06/19 01:48:20;;;;;;;6.90;3.72;;;;;;;21.09;56.20;100087.28;684422;28;1244;-78
2022/06/19 01:48:41;;;;;;;4.82;3.78;;;;;;;21.03;56.30;100074.19;685879;28;891;-79
2022/06/19 01:49:02;;;;;;;4.18;3.70;;;;;;;21.03;56.28;100074.19;685973;28;1332;-78
2022/06/19 01:49:24;;;;;;;4.22;3.83;;;;;;;21.04;56.24;100077.72;682573;28;1193;-78
2022/06/19 01:49:50;;;;;;;3.85;3.55;;;;;;;21.04;56.22;100077.72;680282;29;1167;-79
2022/06/19 01:50:18;;;;;;;3.95;3.55;;;;;;;21.07;56.25;100086.47;679770;29;1245;-78
2022/06/19 01:50:40;;;;;;;4.15;3.42;;;;;;;21.02;56.35;100079.56;680244;29;1795;-79
2022/06/19 01:51:06;;;;;;;4.85;3.20;;;;;;;20.96;56.29;100070.84;680733;29;844;-78
2022/06/19 01:51:26;;;;;;;5.10;3.50;;;;;;;21.07;56.21;100083.81;681796;29;1190;-78
2022/06/19 01:51:47;;;;;;;4.68;3.50;;;;;;;21.05;56.05;100076.81;682743;29;1483;-79
2022/06/19 01:52:08;;;;;;;4.57;3.50;;;;;;;21.02;56.33;100076.91;682471;29;1500;-78
2022/06/19 01:52:30;;;;;;;5.72;3.67;;;;;;;21.03;56.28;100082.16;680460;29;1188;-79
2022/06/19 01:53:03;;;;;;;6.13;3.70;;;;;;;21.07;56.10;100077.63;680470;29;1643;-78